sensor_id;sensor_type;location;lat;lon;timestamp;pressure;altitude;pressure_sealevel;temperature;humidity
41624;BME280;27319;50.306;18.926;2023-02-22T00:00:06;98159.16;;;5.92;95.40
41624;BME280;27319;50.306;18.926;2023-02-22T00:04:16;98156.59;;;5.52;90.64
41624;BME280;27319;50.306;18.926;2023-02-22T00:08:17;98157.28;;;5.54;91.44
41624;BME280;27319;50.306;18.926;2023-02-22T00:12:18;98156.03;;;5.58;92.06
41624;BME280;27319;50.306;18.926;2023-02-22T00:16:20;98155.50;;;5.55;91.53
41624;BME280;27319;50.306;18.926;2023-02-22T00:20:20;98150.03;;;5.56;93.46
41624;BME280;27319;50.306;18.926;2023-02-22T00:24:20;98143.00;;;5.46;92.91
41624;BME280;27319;50.306;18.926;2023-02-22T00:28:22;98145.09;;;5.23;90.04
41624;BME280;27319;50.306;18.926;2023-02-22T00:32:02;98148.59;;;5.33;92.62
41624;BME280;27319;50.306;18.926;2023-02-22T00:35:03;98158.38;;;5.23;92.16
41624;BME280;27319;50.306;18.926;2023-02-22T00:38:08;98154.16;;;5.02;90.93
41624;BME280;27319;50.306;18.926;2023-02-22T00:41:28;98154.84;;;5.13;94.13
41624;BME280;27319;50.306;18.926;2023-02-22T00:45:30;98150.75;;;5.00;92.90
41624;BME280;27319;50.306;18.926;2023-02-22T00:49:30;98156.38;;;5.06;94.08
41624;BME280;27319;50.306;18.926;2023-02-22T00:53:31;98157.81;;;5.10;94.43
41624;BME280;27319;50.306;18.926;2023-02-22T00:57:32;98157.81;;;5.10;95.16
41624;BME280;27319;50.306;18.926;2023-02-22T01:01:13;98164.81;;;5.11;95.91
41624;BME280;27319;50.306;18.926;2023-02-22T01:04:13;98163.94;;;5.11;96.06
41624;BME280;27319;50.306;18.926;2023-02-22T01:07:15;98167.41;;;4.92;95.01
41624;BME280;27319;50.306;18.926;2023-02-22T01:10:20;98164.47;;;4.95;94.90
41624;BME280;27319;50.306;18.926;2023-02-22T01:13:41;98164.56;;;4.84;93.66
41624;BME280;27319;50.306;18.926;2023-02-22T01:17:42;98171.88;;;4.92;94.81
41624;BME280;27319;50.306;18.926;2023-02-22T01:21:43;98160.25;;;4.93;95.08
41624;BME280;27319;50.306;18.926;2023-02-22T01:25:44;98156.13;;;4.70;93.96
41624;BME280;27319;50.306;18.926;2023-02-22T01:29:47;98155.19;;;4.80;95.38
41624;BME280;27319;50.306;18.926;2023-02-22T01:33:29;98157.16;;;4.88;96.98
41624;BME280;27319;50.306;18.926;2023-02-22T01:36:30;98153.91;;;4.75;95.66
41624;BME280;27319;50.306;18.926;2023-02-22T01:39:51;98160.22;;;4.83;97.06
41624;BME280;27319;50.306;18.926;2023-02-22T01:43:32;98155.72;;;4.74;94.96
41624;BME280;27319;50.306;18.926;2023-02-22T01:46:54;98165.78;;;4.41;91.80
41624;BME280;27319;50.306;18.926;2023-02-22T01:51:07;98167.94;;;4.56;94.60
41624;BME280;27319;50.306;18.926;2023-02-22T01:55:06;98162.81;;;4.34;92.97
41624;BME280;27319;50.306;18.926;2023-02-22T01:59:07;98164.56;;;4.45;94.22
41624;BME280;27319;50.306;18.926;2023-02-22T02:03:09;98151.91;;;4.37;92.85
41624;BME280;27319;50.306;18.926;2023-02-22T02:07:06;98151.56;;;4.51;95.44
41624;BME280;27319;50.306;18.926;2023-02-22T02:11:07;98157.28;;;4.47;94.46
41624;BME280;27319;50.306;18.926;2023-02-22T02:15:21;98152.19;;;4.34;93.07
41624;BME280;27319;50.306;18.926;2023-02-22T02:33:56;98161.66;;;4.27;95.67
41624;BME280;27319;50.306;18.926;2023-02-22T02:37:39;98162.63;;;4.26;94.56
41624;BME280;27319;50.306;18.926;2023-02-22T02:41:17;98151.88;;;4.07;94.02
41624;BME280;27319;50.306;18.926;2023-02-22T02:45:18;98160.63;;;3.98;93.82
41624;BME280;27319;50.306;18.926;2023-02-22T02:49:20;98153.03;;;4.14;95.80
41624;BME280;27319;50.306;18.926;2023-02-22T02:53:04;98158.19;;;4.06;95.15
41624;BME280;27319;50.306;18.926;2023-02-22T02:56:26;98158.31;;;3.84;93.04
41624;BME280;27319;50.306;18.926;2023-02-22T03:00:28;98162.97;;;3.92;94.63
41624;BME280;27319;50.306;18.926;2023-02-22T03:04:47;98168.13;;;3.93;95.36
41624;BME280;27319;50.306;18.926;2023-02-22T03:24:52;98155.19;;;3.79;97.68
41624;BME280;27319;50.306;18.926;2023-02-22T03:28:11;98156.16;;;3.78;96.29
41624;BME280;27319;50.306;18.926;2023-02-22T03:31:21;98165.22;;;3.76;96.86
41624;BME280;27319;50.306;18.926;2023-02-22T03:34:27;98169.91;;;3.83;97.80
41624;BME280;27319;50.306;18.926;2023-02-22T03:37:32;98180.56;;;3.72;96.64
41624;BME280;27319;50.306;18.926;2023-02-22T03:40:42;98181.91;;;3.67;95.68
41624;BME280;27319;50.306;18.926;2023-02-22T03:43:49;98177.00;;;3.51;96.15
41624;BME280;27319;50.306;18.926;2023-02-22T03:47:13;98180.88;;;3.47;95.12
41624;BME280;27319;50.306;18.926;2023-02-22T03:51:12;98183.66;;;3.57;96.44
41624;BME280;27319;50.306;18.926;2023-02-22T03:55:13;98176.50;;;3.57;97.17
41624;BME280;27319;50.306;18.926;2023-02-22T03:59:14;98177.06;;;3.40;96.70
41624;BME280;27319;50.306;18.926;2023-02-22T04:03:15;98177.78;;;3.42;96.96
41624;BME280;27319;50.306;18.926;2023-02-22T04:06:50;98182.81;;;3.45;96.57
41624;BME280;27319;50.306;18.926;2023-02-22T04:10:51;98174.81;;;3.25;95.23
41624;BME280;27319;50.306;18.926;2023-02-22T04:14:52;98177.59;;;3.23;96.55
41624;BME280;27319;50.306;18.926;2023-02-22T04:18:53;98178.09;;;3.17;96.33
41624;BME280;27319;50.306;18.926;2023-02-22T04:22:54;98186.97;;;3.38;97.76
41624;BME280;27319;50.306;18.926;2023-02-22T04:26:54;98175.78;;;3.24;96.03
41624;BME280;27319;50.306;18.926;2023-02-22T04:30:55;98171.09;;;3.16;95.98
41624;BME280;27319;50.306;18.926;2023-02-22T04:34:11;98172.06;;;3.15;95.04
41624;BME280;27319;50.306;18.926;2023-02-22T04:37:12;98171.09;;;3.16;95.89
41624;BME280;27319;50.306;18.926;2023-02-22T04:40:15;98173.88;;;3.04;95.34
41624;BME280;27319;50.306;18.926;2023-02-22T04:43:17;98168.94;;;3.10;96.14
41624;BME280;27319;50.306;18.926;2023-02-22T04:46:37;98172.31;;;3.12;96.02
41624;BME280;27319;50.306;18.926;2023-02-22T04:50:38;98169.53;;;3.14;94.36
41624;BME280;27319;50.306;18.926;2023-02-22T04:54:39;98174.69;;;3.26;95.60
41624;BME280;27319;50.306;18.926;2023-02-22T04:58:40;98166.47;;;3.29;94.76
41624;BME280;27319;50.306;18.926;2023-02-22T05:02:41;98171.66;;;3.31;94.01
41624;BME280;27319;50.306;18.926;2023-02-22T05:06:22;98170.25;;;3.16;94.72
41624;BME280;27319;50.306;18.926;2023-02-22T05:09:23;98169.41;;;3.15;94.58
41624;BME280;27319;50.306;18.926;2023-02-22T05:12:26;98173.28;;;3.00;94.17
41624;BME280;27319;50.306;18.926;2023-02-22T05:15:27;98173.16;;;3.13;94.79
41624;BME280;27319;50.306;18.926;2023-02-22T05:18:28;98175.84;;;3.02;94.11
41624;BME280;27319;50.306;18.926;2023-02-22T05:21:29;98177.09;;;3.18;96.04
41624;BME280;27319;50.306;18.926;2023-02-22T05:24:31;98183.91;;;3.00;94.47
41624;BME280;27319;50.306;18.926;2023-02-22T05:27:53;98187.25;;;3.13;95.45
41624;BME280;27319;50.306;18.926;2023-02-22T05:31:32;98183.47;;;3.27;95.12
41624;BME280;27319;50.306;18.926;2023-02-22T05:34:33;98187.00;;;3.16;94.30
41624;BME280;27319;50.306;18.926;2023-02-22T05:37:34;98185.06;;;3.18;94.94
41624;BME280;27319;50.306;18.926;2023-02-22T05:40:36;98192.53;;;3.13;94.86
41624;BME280;27319;50.306;18.926;2023-02-22T05:43:38;98191.72;;;3.13;95.14
41624;BME280;27319;50.306;18.926;2023-02-22T05:46:59;98197.13;;;3.22;94.74
41624;BME280;27319;50.306;18.926;2023-02-22T05:51:00;98197.13;;;3.22;95.29
41624;BME280;27319;50.306;18.926;2023-02-22T05:55:01;98210.16;;;3.14;94.78
41624;BME280;27319;50.306;18.926;2023-02-22T05:59:02;98205.28;;;3.30;95.01
41624;BME280;27319;50.306;18.926;2023-02-22T06:03:03;98214.38;;;3.17;94.11
41624;BME280;27319;50.306;18.926;2023-02-22T06:07:03;98214.72;;;3.23;95.03
41624;BME280;27319;50.306;18.926;2023-02-22T06:11:04;98221.19;;;3.30;95.06
41624;BME280;27319;50.306;18.926;2023-02-22T06:15:05;98213.13;;;3.32;95.12
41624;BME280;27319;50.306;18.926;2023-02-22T06:19:06;98222.06;;;3.31;95.04
41624;BME280;27319;50.306;18.926;2023-02-22T06:23:10;98220.50;;;3.28;95.44
41624;BME280;27319;50.306;18.926;2023-02-22T06:27:14;98223.59;;;3.44;94.79
41624;BME280;27319;50.306;18.926;2023-02-22T06:31:14;98233.97;;;3.36;94.35
41624;BME280;27319;50.306;18.926;2023-02-22T06:35:16;98233.03;;;3.37;95.02
41624;BME280;27319;50.306;18.926;2023-02-22T06:39:16;98238.81;;;3.42;95.00
41624;BME280;27319;50.306;18.926;2023-02-22T06:43:17;98252.41;;;3.80;96.17
41624;BME280;27319;50.306;18.926;2023-02-22T06:47:18;98256.91;;;3.80;95.52
41624;BME280;27319;50.306;18.926;2023-02-22T06:51:19;98253.19;;;3.71;95.84
41624;BME280;27319;50.306;18.926;2023-02-22T06:55:21;98263.31;;;3.77;95.50
41624;BME280;27319;50.306;18.926;2023-02-22T06:59:01;98265.53;;;3.93;95.72
41624;BME280;27319;50.306;18.926;2023-02-22T07:02:01;98269.28;;;3.90;95.90
41624;BME280;27319;50.306;18.926;2023-02-22T07:05:24;98265.84;;;3.99;96.25
41624;BME280;27319;50.306;18.926;2023-02-22T07:09:04;98267.25;;;4.14;96.26
41624;BME280;27319;50.306;18.926;2023-02-22T07:12:25;98270.19;;;4.11;96.57
41624;BME280;27319;50.306;18.926;2023-02-22T07:16:26;98276.03;;;4.26;96.92
41624;BME280;27319;50.306;18.926;2023-02-22T07:20:27;98274.97;;;4.17;96.97
41624;BME280;27319;50.306;18.926;2023-02-22T07:24:27;98268.94;;;4.15;97.67
41624;BME280;27319;50.306;18.926;2023-02-22T07:28:28;98272.38;;;4.27;97.83
41624;BME280;27319;50.306;18.926;2023-02-22T07:32:29;98273.75;;;4.42;97.31
41624;BME280;27319;50.306;18.926;2023-02-22T07:36:29;98281.25;;;4.37;97.12
41624;BME280;27319;50.306;18.926;2023-02-22T07:40:11;98283.72;;;4.49;96.50
41624;BME280;27319;50.306;18.926;2023-02-22T07:43:21;98283.47;;;4.52;96.68
41624;BME280;27319;50.306;18.926;2023-02-22T07:46:45;98286.97;;;4.73;94.89
41624;BME280;27319;50.306;18.926;2023-02-22T07:50:43;98287.22;;;4.70;95.64
41624;BME280;27319;50.306;18.926;2023-02-22T07:54:44;98290.13;;;4.88;95.99
41624;BME280;27319;50.306;18.926;2023-02-22T07:58:45;98277.75;;;4.77;96.08
41624;BME280;27319;50.306;18.926;2023-02-22T08:02:46;98284.91;;;5.07;95.41
41624;BME280;27319;50.306;18.926;2023-02-22T08:06:27;98292.25;;;4.94;95.95
41624;BME280;27319;50.306;18.926;2023-02-22T08:09:29;98282.19;;;4.97;95.40
41624;BME280;27319;50.306;18.926;2023-02-22T08:12:31;98284.84;;;4.97;94.83
41624;BME280;27319;50.306;18.926;2023-02-22T08:15:37;98280.66;;;4.95;96.28
41624;BME280;27319;50.306;18.926;2023-02-22T08:18:39;98283.44;;;4.93;95.49
41624;BME280;27319;50.306;18.926;2023-02-22T08:21:40;98288.84;;;5.12;94.77
41624;BME280;27319;50.306;18.926;2023-02-22T08:25:01;98284.50;;;5.11;94.94
41624;BME280;27319;50.306;18.926;2023-02-22T08:28:43;98286.88;;;5.14;94.82
41624;BME280;27319;50.306;18.926;2023-02-22T08:31:49;98291.63;;;5.11;94.92
41624;BME280;27319;50.306;18.926;2023-02-22T08:34:51;98279.63;;;5.16;94.17
41624;BME280;27319;50.306;18.926;2023-02-22T08:38:16;98288.88;;;5.22;93.75
41624;BME280;27319;50.306;18.926;2023-02-22T08:42:15;98292.44;;;5.32;92.75
41624;BME280;27319;50.306;18.926;2023-02-22T08:45:32;98294.75;;;5.55;92.91
41624;BME280;27319;50.306;18.926;2023-02-22T08:48:53;98299.22;;;5.45;93.11
41624;BME280;27319;50.306;18.926;2023-02-22T08:52:55;98299.09;;;5.47;93.27
41624;BME280;27319;50.306;18.926;2023-02-22T08:56:55;98304.00;;;5.51;92.86
41624;BME280;27319;50.306;18.926;2023-02-22T09:00:38;98301.91;;;5.55;92.70
41624;BME280;27319;50.306;18.926;2023-02-22T09:03:54;98309.47;;;5.59;90.17
41624;BME280;27319;50.306;18.926;2023-02-22T09:06:56;98306.44;;;5.73;89.66
41624;BME280;27319;50.306;18.926;2023-02-22T09:10:18;98311.34;;;5.78;88.63
41624;BME280;27319;50.306;18.926;2023-02-22T09:14:17;98308.13;;;5.74;89.17
41624;BME280;27319;50.306;18.926;2023-02-22T09:18:18;98316.59;;;5.89;89.54
41624;BME280;27319;50.306;18.926;2023-02-22T09:22:19;98317.16;;;6.02;89.62
41624;BME280;27319;50.306;18.926;2023-02-22T09:26:20;98320.81;;;6.10;89.23
41624;BME280;27319;50.306;18.926;2023-02-22T09:30:22;98316.91;;;6.14;89.05
41624;BME280;27319;50.306;18.926;2023-02-22T09:34:03;98311.03;;;6.30;86.16
41624;BME280;27319;50.306;18.926;2023-02-22T09:37:06;98313.00;;;6.37;86.20
41624;BME280;27319;50.306;18.926;2023-02-22T09:40:29;98312.00;;;6.38;86.40
41624;BME280;27319;50.306;18.926;2023-02-22T09:44:37;98310.75;;;6.33;85.50
41624;BME280;27319;50.306;18.926;2023-02-22T09:48:37;98309.75;;;6.53;84.36
41624;BME280;27319;50.306;18.926;2023-02-22T09:55:44;98307.22;;;6.51;85.39
41624;BME280;27319;50.306;18.926;2023-02-22T09:59:23;98309.88;;;6.61;84.74
41624;BME280;27319;50.306;18.926;2023-02-22T10:07:17;98304.22;;;6.92;82.96
41624;BME280;27319;50.306;18.926;2023-02-22T10:15:41;98303.66;;;6.89;83.79
41624;BME280;27319;50.306;18.926;2023-02-22T10:18:43;98298.03;;;7.01;82.56
41624;BME280;27319;50.306;18.926;2023-02-22T10:23:03;98306.16;;;7.00;83.40
41624;BME280;27319;50.306;18.926;2023-02-22T10:33:16;98298.44;;;7.06;80.92
41624;BME280;27319;50.306;18.926;2023-02-22T10:37:25;98300.38;;;7.04;79.04
41624;BME280;27319;50.306;18.926;2023-02-22T10:41:20;98307.84;;;7.10;79.31
41624;BME280;27319;50.306;18.926;2023-02-22T10:45:21;98302.19;;;7.13;78.61
41624;BME280;27319;50.306;18.926;2023-02-22T10:49:20;98290.84;;;7.11;77.82
41624;BME280;27319;50.306;18.926;2023-02-22T10:53:20;98294.50;;;7.01;76.82
41624;BME280;27319;50.306;18.926;2023-02-22T10:57:22;98295.16;;;7.22;75.83
41624;BME280;27319;50.306;18.926;2023-02-22T11:00:39;98300.22;;;7.15;76.02
41624;BME280;27319;50.306;18.926;2023-02-22T11:10:30;98299.28;;;6.97;77.02
41624;BME280;27319;50.306;18.926;2023-02-22T11:13:36;98289.84;;;7.12;76.82
41624;BME280;27319;50.306;18.926;2023-02-22T11:17:00;98282.59;;;6.95;77.22
41624;BME280;27319;50.306;18.926;2023-02-22T11:21:05;98275.28;;;6.97;78.01
41624;BME280;27319;50.306;18.926;2023-02-22T11:25:16;98276.59;;;7.20;77.13
41624;BME280;27319;50.306;18.926;2023-02-22T11:29:19;98280.94;;;7.21;75.55
41624;BME280;27319;50.306;18.926;2023-02-22T11:33:22;98274.97;;;7.46;74.54
41624;BME280;27319;50.306;18.926;2023-02-22T11:40:22;98280.56;;;7.43;73.25
41624;BME280;27319;50.306;18.926;2023-02-22T11:43:23;98267.16;;;7.53;73.09
41624;BME280;27319;50.306;18.926;2023-02-22T11:46:44;98262.75;;;7.44;72.36
41624;BME280;27319;50.306;18.926;2023-02-22T12:01:44;98260.06;;;7.71;70.90
41624;BME280;27319;50.306;18.926;2023-02-22T12:05:58;98260.94;;;7.62;70.70
41624;BME280;27319;50.306;18.926;2023-02-22T12:24:05;98261.13;;;7.33;68.97
41624;BME280;27319;50.306;18.926;2023-02-22T12:28:27;98266.13;;;7.36;69.06
41624;BME280;27319;50.306;18.926;2023-02-22T12:35:58;98270.47;;;7.10;69.92
41624;BME280;27319;50.306;18.926;2023-02-22T12:43:32;98263.66;;;7.25;68.29
41624;BME280;27319;50.306;18.926;2023-02-22T12:47:35;98256.69;;;7.15;67.53
41624;BME280;27319;50.306;18.926;2023-02-22T12:51:33;98253.34;;;7.03;67.26
41624;BME280;27319;50.306;18.926;2023-02-22T12:55:40;98255.56;;;7.17;69.71
41624;BME280;27319;50.306;18.926;2023-02-22T12:59:29;98256.66;;;7.24;68.11
41624;BME280;27319;50.306;18.926;2023-02-22T13:02:37;98257.78;;;7.22;68.42
41624;BME280;27319;50.306;18.926;2023-02-22T13:05:40;98253.25;;;7.32;69.87
41624;BME280;27319;50.306;18.926;2023-02-22T13:18:25;98236.38;;;7.58;68.95
41624;BME280;27319;50.306;18.926;2023-02-22T13:22:08;98233.91;;;7.74;68.85
41624;BME280;27319;50.306;18.926;2023-02-22T13:29:22;98235.78;;;7.82;70.43
41624;BME280;27319;50.306;18.926;2023-02-22T13:36:09;98237.84;;;7.88;67.12
41624;BME280;27319;50.306;18.926;2023-02-22T13:50:38;98237.69;;;7.89;67.61
41624;BME280;27319;50.306;18.926;2023-02-22T13:58:20;98234.34;;;7.87;66.88
41624;BME280;27319;50.306;18.926;2023-02-22T14:02:32;98238.78;;;7.96;67.82
41624;BME280;27319;50.306;18.926;2023-02-22T14:06:09;98235.75;;;7.91;65.31
41624;BME280;27319;50.306;18.926;2023-02-22T14:09:50;98230.69;;;7.88;65.06
41624;BME280;27319;50.306;18.926;2023-02-22T14:17:23;98229.63;;;7.81;65.74
41624;BME280;27319;50.306;18.926;2023-02-22T14:21:15;98239.97;;;7.84;64.96
41624;BME280;27319;50.306;18.926;2023-02-22T14:24:17;98236.16;;;7.69;65.28
41624;BME280;27319;50.306;18.926;2023-02-22T14:27:38;98233.72;;;7.76;67.40
41624;BME280;27319;50.306;18.926;2023-02-22T14:35:23;98233.69;;;7.58;66.61
41624;BME280;27319;50.306;18.926;2023-02-22T14:43:32;98237.66;;;7.54;67.51
41624;BME280;27319;50.306;18.926;2023-02-22T14:47:41;98238.00;;;7.42;67.33
41624;BME280;27319;50.306;18.926;2023-02-22T14:51:56;98234.09;;;7.36;67.76
41624;BME280;27319;50.306;18.926;2023-02-22T15:00:00;98243.38;;;7.32;69.31
41624;BME280;27319;50.306;18.926;2023-02-22T15:08:01;98246.22;;;7.31;68.58
41624;BME280;27319;50.306;18.926;2023-02-22T15:15:24;98241.13;;;7.10;69.78
41624;BME280;27319;50.306;18.926;2023-02-22T15:18:38;98237.34;;;7.03;68.26
41624;BME280;27319;50.306;18.926;2023-02-22T15:22:03;98248.31;;;7.00;69.98
41624;BME280;27319;50.306;18.926;2023-02-22T15:26:03;98239.81;;;6.87;70.44
41624;BME280;27319;50.306;18.926;2023-02-22T15:30:05;98249.22;;;6.82;71.98
41624;BME280;27319;50.306;18.926;2023-02-22T15:38:05;98243.31;;;6.78;71.86
41624;BME280;27319;50.306;18.926;2023-02-22T15:41:06;98244.72;;;6.73;71.70
41624;BME280;27319;50.306;18.926;2023-02-22T15:44:13;98247.25;;;6.74;72.67
41624;BME280;27319;50.306;18.926;2023-02-22T15:47:26;98240.38;;;6.72;73.12
41624;BME280;27319;50.306;18.926;2023-02-22T15:50:30;98238.03;;;6.69;73.49
41624;BME280;27319;50.306;18.926;2023-02-22T15:53:53;98236.63;;;6.55;74.98
41624;BME280;27319;50.306;18.926;2023-02-22T15:57:54;98232.16;;;6.46;74.39
41624;BME280;27319;50.306;18.926;2023-02-22T16:01:57;98230.94;;;6.31;75.15
41624;BME280;27319;50.306;18.926;2023-02-22T16:05:46;98228.28;;;6.22;75.01
41624;BME280;27319;50.306;18.926;2023-02-22T16:09:15;98233.31;;;6.15;76.39
41624;BME280;27319;50.306;18.926;2023-02-22T16:12:22;98232.06;;;6.10;76.92
41624;BME280;27319;50.306;18.926;2023-02-22T16:16:20;98248.47;;;6.05;79.35
41624;BME280;27319;50.306;18.926;2023-02-22T16:19:44;98246.91;;;6.03;79.75
41624;BME280;27319;50.306;18.926;2023-02-22T16:23:21;98245.38;;;6.00;80.50
41624;BME280;27319;50.306;18.926;2023-02-22T16:27:04;98251.13;;;5.86;78.52
41624;BME280;27319;50.306;18.926;2023-02-22T16:30:42;98245.09;;;5.84;80.82
41624;BME280;27319;50.306;18.926;2023-02-22T16:33:44;98250.94;;;5.78;81.54
41624;BME280;27319;50.306;18.926;2023-02-22T16:37:05;98245.59;;;5.69;81.61
41624;BME280;27319;50.306;18.926;2023-02-22T16:40:48;98257.34;;;5.57;80.16
41624;BME280;27319;50.306;18.926;2023-02-22T16:43:52;98259.19;;;5.56;82.53
41624;BME280;27319;50.306;18.926;2023-02-22T16:47:13;98256.34;;;5.48;82.43
41624;BME280;27319;50.306;18.926;2023-02-22T16:51:21;98254.22;;;5.42;83.74
41624;BME280;27319;50.306;18.926;2023-02-22T16:55:01;98258.56;;;5.43;83.85
41624;BME280;27319;50.306;18.926;2023-02-22T16:58:03;98258.56;;;5.43;83.89
41624;BME280;27319;50.306;18.926;2023-02-22T17:01:24;98258.00;;;5.40;84.65
41624;BME280;27319;50.306;18.926;2023-02-22T17:05:06;98255.59;;;5.27;84.80
41624;BME280;27319;50.306;18.926;2023-02-22T17:08:07;98253.91;;;5.26;85.28
41624;BME280;27319;50.306;18.926;2023-02-22T17:11:28;98256.13;;;5.21;85.42
41624;BME280;27319;50.306;18.926;2023-02-22T17:15:17;98258.88;;;5.10;85.66
41624;BME280;27319;50.306;18.926;2023-02-22T17:18:20;98256.66;;;5.15;86.38
41624;BME280;27319;50.306;18.926;2023-02-22T17:21:22;98261.69;;;5.09;86.15
41624;BME280;27319;50.306;18.926;2023-02-22T17:24:43;98264.41;;;4.98;86.32
41624;BME280;27319;50.306;18.926;2023-02-22T17:28:44;98254.31;;;4.92;86.60
41624;BME280;27319;50.306;18.926;2023-02-22T17:32:25;98262.69;;;4.87;87.59
41624;BME280;27319;50.306;18.926;2023-02-22T17:35:46;98253.25;;;4.74;86.66
41624;BME280;27319;50.306;18.926;2023-02-22T17:39:27;98255.84;;;4.64;87.58
41624;BME280;27319;50.306;18.926;2023-02-22T17:42:47;98253.91;;;4.66;87.54
41624;BME280;27319;50.306;18.926;2023-02-22T17:46:05;98254.94;;;4.54;88.25
41624;BME280;27319;50.306;18.926;2023-02-22T17:49:07;98256.75;;;4.54;88.40
41624;BME280;27319;50.306;18.926;2023-02-22T17:52:28;98258.00;;;4.50;88.35
41624;BME280;27319;50.306;18.926;2023-02-22T17:56:29;98263.03;;;4.53;88.78
41624;BME280;27319;50.306;18.926;2023-02-22T18:00:32;98264.09;;;4.41;88.79
41624;BME280;27319;50.306;18.926;2023-02-22T18:04:11;98263.16;;;4.31;88.26
41624;BME280;27319;50.306;18.926;2023-02-22T18:07:31;98258.47;;;4.34;89.11
41624;BME280;27319;50.306;18.926;2023-02-22T18:11:32;98255.94;;;4.33;89.49
41624;BME280;27319;50.306;18.926;2023-02-22T18:15:33;98260.19;;;4.04;88.61
41624;BME280;27319;50.306;18.926;2023-02-22T18:19:34;98263.38;;;4.18;89.52
41624;BME280;27319;50.306;18.926;2023-02-22T18:23:35;98264.88;;;4.11;90.01
41624;BME280;27319;50.306;18.926;2023-02-22T18:27:36;98262.34;;;4.10;90.14
41624;BME280;27319;50.306;18.926;2023-02-22T18:31:36;98257.88;;;3.99;88.82
41624;BME280;27319;50.306;18.926;2023-02-22T18:35:38;98260.09;;;3.94;90.08
41624;BME280;27319;50.306;18.926;2023-02-22T18:39:18;98260.69;;;3.66;87.45
41624;BME280;27319;50.306;18.926;2023-02-22T18:42:39;98264.03;;;3.68;90.61
41624;BME280;27319;50.306;18.926;2023-02-22T18:46:40;98270.72;;;3.63;90.33
41624;BME280;27319;50.306;18.926;2023-02-22T18:50:40;98261.41;;;3.57;89.21
41624;BME280;27319;50.306;18.926;2023-02-22T18:54:41;98262.63;;;3.53;89.87
41624;BME280;27319;50.306;18.926;2023-02-22T18:58:42;98262.19;;;3.48;89.07
41624;BME280;27319;50.306;18.926;2023-02-22T19:02:38;98257.09;;;3.56;90.80
41624;BME280;27319;50.306;18.926;2023-02-22T19:06:01;98256.88;;;3.48;89.94
41624;BME280;27319;50.306;18.926;2023-02-22T19:10:05;98265.03;;;3.56;91.31
41624;BME280;27319;50.306;18.926;2023-02-22T19:14:06;98268.56;;;3.46;90.62
41624;BME280;27319;50.306;18.926;2023-02-22T19:18:06;98264.09;;;3.46;90.30
41624;BME280;27319;50.306;18.926;2023-02-22T19:21:34;98265.19;;;3.44;91.56
41624;BME280;27319;50.306;18.926;2023-02-22T19:25:16;98262.91;;;3.39;91.71
41624;BME280;27319;50.306;18.926;2023-02-22T19:28:17;98261.91;;;3.51;91.49
41624;BME280;27319;50.306;18.926;2023-02-22T19:34:25;98260.97;;;3.41;90.52
41624;BME280;27319;50.306;18.926;2023-02-22T19:37:30;98256.41;;;3.32;90.42
41624;BME280;27319;50.306;18.926;2023-02-22T19:40:53;98263.91;;;3.27;90.71
41624;BME280;27319;50.306;18.926;2023-02-22T19:44:56;98269.69;;;3.21;91.53
41624;BME280;27319;50.306;18.926;2023-02-22T19:48:57;98274.53;;;3.05;88.62
41624;BME280;27319;50.306;18.926;2023-02-22T19:52:58;98270.78;;;2.86;88.36
41624;BME280;27319;50.306;18.926;2023-02-22T19:56:59;98269.69;;;2.88;90.69
41624;BME280;27319;50.306;18.926;2023-02-22T20:00:59;98275.25;;;2.96;91.89
41624;BME280;27319;50.306;18.926;2023-02-22T20:04:43;98271.03;;;2.83;90.26
41624;BME280;27319;50.306;18.926;2023-02-22T20:07:44;98271.38;;;2.89;91.07
41624;BME280;27319;50.306;18.926;2023-02-22T20:10:48;98269.22;;;2.83;90.23
41624;BME280;27319;50.306;18.926;2023-02-22T20:14:15;98275.00;;;2.88;91.23
41624;BME280;27319;50.306;18.926;2023-02-22T20:17:55;98270.41;;;2.90;92.09
41624;BME280;27319;50.306;18.926;2023-02-22T20:20:57;98277.31;;;2.82;91.35
41624;BME280;27319;50.306;18.926;2023-02-22T20:24:00;98272.22;;;2.79;91.60
41624;BME280;27319;50.306;18.926;2023-02-22T20:27:21;98270.28;;;2.81;91.62
41624;BME280;27319;50.306;18.926;2023-02-22T20:31:07;98269.22;;;2.83;91.48
41624;BME280;27319;50.306;18.926;2023-02-22T20:34:30;98273.09;;;2.79;90.91
41624;BME280;27319;50.306;18.926;2023-02-22T20:38:12;98278.25;;;2.81;91.79
41624;BME280;27319;50.306;18.926;2023-02-22T20:41:20;98268.97;;;2.64;91.19
41624;BME280;27319;50.306;18.926;2023-02-22T20:44:22;98266.53;;;2.50;90.18
41624;BME280;27319;50.306;18.926;2023-02-22T20:47:23;98268.09;;;2.53;90.86
41624;BME280;27319;50.306;18.926;2023-02-22T20:50:24;98279.78;;;2.50;91.35
41624;BME280;27319;50.306;18.926;2023-02-22T20:53:48;98271.69;;;2.52;92.50
41624;BME280;27319;50.306;18.926;2023-02-22T20:57:49;98274.88;;;2.68;93.80
41624;BME280;27319;50.306;18.926;2023-02-22T21:01:30;98283.03;;;2.43;91.37
41624;BME280;27319;50.306;18.926;2023-02-22T21:04:31;98274.28;;;2.30;90.55
41624;BME280;27319;50.306;18.926;2023-02-22T21:07:32;98281.81;;;2.36;92.01
41624;BME280;27319;50.306;18.926;2023-02-22T21:10:44;98274.94;;;2.33;91.75
41624;BME280;27319;50.306;18.926;2023-02-22T21:14:06;98270.25;;;2.37;92.49
41624;BME280;27319;50.306;18.926;2023-02-22T21:17:47;98269.50;;;2.35;92.28
41624;BME280;27319;50.306;18.926;2023-02-22T21:21:07;98276.47;;;2.25;90.46
41624;BME280;27319;50.306;18.926;2023-02-22T21:25:08;98271.06;;;2.37;92.90
41624;BME280;27319;50.306;18.926;2023-02-22T21:29:09;98266.56;;;2.16;90.96
41624;BME280;27319;50.306;18.926;2023-02-22T21:32:50;98268.09;;;2.07;90.01
41624;BME280;27319;50.306;18.926;2023-02-22T21:36:13;98264.03;;;2.14;91.59
41624;BME280;27319;50.306;18.926;2023-02-22T21:40:14;98259.19;;;2.08;90.21
41624;BME280;27319;50.306;18.926;2023-02-22T21:43:18;98262.06;;;1.94;89.65
41624;BME280;27319;50.306;18.926;2023-02-22T21:46:39;98256.16;;;1.91;89.75
41624;BME280;27319;50.306;18.926;2023-02-22T21:50:20;98245.34;;;2.05;91.37